sensor_id;sensor_type;location;lat;lon;timestamp;pressure;altitude;pressure_sealevel;temperature;humidity
1616;BME280;801;47.982;7.810;2023-06-14T00:00:02;98041.81;;;19.63;35.71
1616;BME280;801;47.982;7.810;2023-06-14T00:02:29;98044.16;;;19.52;36.28
1616;BME280;801;47.982;7.810;2023-06-14T00:04:56;98045.66;;;19.62;35.82
1616;BME280;801;47.982;7.810;2023-06-14T00:07:33;98047.97;;;19.51;36.26
1616;BME280;801;47.982;7.810;2023-06-14T00:10:00;98040.03;;;19.67;36.15
1616;BME280;801;47.982;7.810;2023-06-14T00:12:28;98047.50;;;19.79;35.87
1616;BME280;801;47.982;7.810;2023-06-14T00:14:55;98043.03;;;19.74;36.09
1616;BME280;801;47.982;7.810;2023-06-14T00:17:21;98044.19;;;19.64;36.31
1616;BME280;801;47.982;7.810;2023-06-14T00:19:49;98045.31;;;19.72;36.48
1616;BME280;801;47.982;7.810;2023-06-14T00:22:15;98040.22;;;19.62;36.40
1616;BME280;801;47.982;7.810;2023-06-14T00:24:42;98042.34;;;19.56;36.26
1616;BME280;801;47.982;7.810;2023-06-14T00:27:08;98046.31;;;19.38;36.88
1616;BME280;801;47.982;7.810;2023-06-14T00:29:36;98042.69;;;19.34;37.02
1616;BME280;801;47.982;7.810;2023-06-14T00:32:03;98034.50;;;19.34;37.18
1616;BME280;801;47.982;7.810;2023-06-14T00:34:30;98035.78;;;19.36;36.96
1616;BME280;801;47.982;7.810;2023-06-14T00:36:57;98033.09;;;19.27;37.19
1616;BME280;801;47.982;7.810;2023-06-14T00:39:23;98038.28;;;19.20;37.55
1616;BME280;801;47.982;7.810;2023-06-14T00:41:50;98039.81;;;19.09;37.80
1616;BME280;801;47.982;7.810;2023-06-14T00:44:16;98038.75;;;19.22;37.20
1616;BME280;801;47.982;7.810;2023-06-14T00:46:45;98043.50;;;19.04;37.25
1616;BME280;801;47.982;7.810;2023-06-14T00:49:12;98039.66;;;19.05;37.70
1616;BME280;801;47.982;7.810;2023-06-14T00:51:41;98043.00;;;19.11;37.76
1616;BME280;801;47.982;7.810;2023-06-14T00:54:07;98046.03;;;19.10;37.99
1616;BME280;801;47.982;7.810;2023-06-14T00:56:35;98031.81;;;19.04;37.86
1616;BME280;801;47.982;7.810;2023-06-14T00:59:02;98026.56;;;18.99;38.63
1616;BME280;801;47.982;7.810;2023-06-14T01:01:29;98032.19;;;18.94;38.77
1616;BME280;801;47.982;7.810;2023-06-14T01:03:59;98040.16;;;18.99;38.79
1616;BME280;801;47.982;7.810;2023-06-14T01:06:32;98039.31;;;18.77;39.57
1616;BME280;801;47.982;7.810;2023-06-14T01:09:06;98036.59;;;18.77;39.70
1616;BME280;801;47.982;7.810;2023-06-14T01:11:43;98040.72;;;18.75;39.49
1616;BME280;801;47.982;7.810;2023-06-14T01:14:14;98043.03;;;18.55;40.30
1616;BME280;801;47.982;7.810;2023-06-14T01:16:41;98040.75;;;18.66;40.09
1616;BME280;801;47.982;7.810;2023-06-14T01:19:12;98044.16;;;18.63;40.44
1616;BME280;801;47.982;7.810;2023-06-14T01:21:39;98033.31;;;18.45;40.90
1616;BME280;801;47.982;7.810;2023-06-14T01:24:08;98039.28;;;18.30;41.69
1616;BME280;801;47.982;7.810;2023-06-14T01:26:36;98038.81;;;18.28;41.52
1616;BME280;801;47.982;7.810;2023-06-14T01:29:04;98038.81;;;18.28;42.08
1616;BME280;801;47.982;7.810;2023-06-14T01:31:32;98032.78;;;18.22;42.48
1616;BME280;801;47.982;7.810;2023-06-14T01:34:06;98030.72;;;18.11;43.00
1616;BME280;801;47.982;7.810;2023-06-14T01:36:33;98038.91;;;18.02;43.12
1616;BME280;801;47.982;7.810;2023-06-14T01:39:01;98043.69;;;17.96;43.27
1616;BME280;801;47.982;7.810;2023-06-14T01:41:29;98039.72;;;17.85;44.16
1616;BME280;801;47.982;7.810;2023-06-14T01:43:57;98027.06;;;17.72;44.15
1616;BME280;801;47.982;7.810;2023-06-14T01:46:25;98036.16;;;17.76;44.51
1616;BME280;801;47.982;7.810;2023-06-14T01:48:51;98035.84;;;17.60;45.30
1616;BME280;801;47.982;7.810;2023-06-14T01:51:18;98031.06;;;17.48;45.58
1616;BME280;801;47.982;7.810;2023-06-14T01:53:44;98032.81;;;17.44;46.11
1616;BME280;801;47.982;7.810;2023-06-14T01:56:12;98040.78;;;17.32;46.75
1616;BME280;801;47.982;7.810;2023-06-14T01:58:39;98036.31;;;17.27;46.64
1616;BME280;801;47.982;7.810;2023-06-14T02:01:06;98042.03;;;17.26;46.55
1616;BME280;801;47.982;7.810;2023-06-14T02:03:33;98040.78;;;17.32;47.10
1616;BME280;801;47.982;7.810;2023-06-14T02:06:03;98043.47;;;17.14;48.49
1616;BME280;801;47.982;7.810;2023-06-14T02:08:29;98043.34;;;17.19;47.55
1616;BME280;801;47.982;7.810;2023-06-14T02:10:56;98047.19;;;16.78;49.13
1616;BME280;801;47.982;7.810;2023-06-14T02:13:22;98038.81;;;16.97;49.34
1616;BME280;801;47.982;7.810;2023-06-14T02:15:50;98034.94;;;16.90;50.14
1616;BME280;801;47.982;7.810;2023-06-14T02:18:19;98045.81;;;16.90;49.76
1616;BME280;801;47.982;7.810;2023-06-14T02:20:46;98047.56;;;16.86;50.38
1616;BME280;801;47.982;7.810;2023-06-14T02:23:13;98037.41;;;16.69;50.07
1616;BME280;801;47.982;7.810;2023-06-14T02:25:40;98037.00;;;16.13;52.24
1616;BME280;801;47.982;7.810;2023-06-14T02:28:06;98037.22;;;16.25;54.21
1616;BME280;801;47.982;7.810;2023-06-14T02:30:33;98037.84;;;16.53;52.50
1616;BME280;801;47.982;7.810;2023-06-14T02:33:01;98039.25;;;16.51;52.75
1616;BME280;801;47.982;7.810;2023-06-14T02:35:29;98042.03;;;16.28;53.30
1616;BME280;801;47.982;7.810;2023-06-14T02:37:55;98045.72;;;16.32;53.22
1616;BME280;801;47.982;7.810;2023-06-14T02:40:22;98034.09;;;16.40;53.61
1616;BME280;801;47.982;7.810;2023-06-14T02:42:49;98037.84;;;16.22;52.89
1616;BME280;801;47.982;7.810;2023-06-14T02:45:15;98034.91;;;16.10;52.75
1616;BME280;801;47.982;7.810;2023-06-14T02:47:42;98041.84;;;16.25;52.61
1616;BME280;801;47.982;7.810;2023-06-14T02:50:10;98043.50;;;16.43;52.09
1616;BME280;801;47.982;7.810;2023-06-14T02:52:36;98043.50;;;16.34;53.17
1616;BME280;801;47.982;7.810;2023-06-14T02:55:03;98049.84;;;16.30;52.49
1616;BME280;801;47.982;7.810;2023-06-14T02:57:31;98050.91;;;16.20;53.26
1616;BME280;801;47.982;7.810;2023-06-14T02:59:57;98057.94;;;16.21;53.51
1616;BME280;801;47.982;7.810;2023-06-14T03:02:24;98056.50;;;16.24;54.05
1616;BME280;801;47.982;7.810;2023-06-14T03:04:51;98057.66;;;16.31;52.56
1616;BME280;801;47.982;7.810;2023-06-14T03:07:18;98057.16;;;16.29;52.29
1616;BME280;801;47.982;7.810;2023-06-14T03:09:45;98057.75;;;16.17;53.03
1616;BME280;801;47.982;7.810;2023-06-14T03:12:12;98054.28;;;16.26;54.03
1616;BME280;801;47.982;7.810;2023-06-14T03:14:40;98065.84;;;16.40;53.35
1616;BME280;801;47.982;7.810;2023-06-14T03:17:07;98063.09;;;16.31;52.74
1616;BME280;801;47.982;7.810;2023-06-14T03:19:34;98068.16;;;16.24;52.34
1616;BME280;801;47.982;7.810;2023-06-14T03:22:00;98059.81;;;16.21;54.40
1616;BME280;801;47.982;7.810;2023-06-14T03:24:29;98073.94;;;16.31;54.31
1616;BME280;801;47.982;7.810;2023-06-14T03:26:57;98072.78;;;16.24;54.50
1616;BME280;801;47.982;7.810;2023-06-14T03:29:23;98081.00;;;16.18;53.15
1616;BME280;801;47.982;7.810;2023-06-14T03:31:57;98078.88;;;16.07;55.01
1616;BME280;801;47.982;7.810;2023-06-14T03:34:24;98079.72;;;16.16;54.40
1616;BME280;801;47.982;7.810;2023-06-14T03:36:51;98083.88;;;16.13;53.27
1616;BME280;801;47.982;7.810;2023-06-14T03:39:17;98083.50;;;16.06;53.43
1616;BME280;801;47.982;7.810;2023-06-14T03:41:46;98078.38;;;15.82;54.05
1616;BME280;801;47.982;7.810;2023-06-14T03:44:14;98089.97;;;15.96;53.45
1616;BME280;801;47.982;7.810;2023-06-14T03:46:40;98088.91;;;15.84;53.57
1616;BME280;801;47.982;7.810;2023-06-14T03:49:07;98087.84;;;15.71;55.08
1616;BME280;801;47.982;7.810;2023-06-14T03:51:33;98090.00;;;15.83;54.70
1616;BME280;801;47.982;7.810;2023-06-14T03:54:00;98084.72;;;15.77;54.94
1616;BME280;801;47.982;7.810;2023-06-14T03:56:27;98090.34;;;15.81;54.52
1616;BME280;801;47.982;7.810;2023-06-14T03:58:55;98090.84;;;15.83;55.27
1616;BME280;801;47.982;7.810;2023-06-14T04:01:21;98097.47;;;15.77;54.37
1616;BME280;801;47.982;7.810;2023-06-14T04:03:55;98094.03;;;15.85;54.87
1616;BME280;801;47.982;7.810;2023-06-14T04:06:22;98090.63;;;15.80;55.03
1616;BME280;801;47.982;7.810;2023-06-14T04:08:50;98100.44;;;15.89;54.85
1616;BME280;801;47.982;7.810;2023-06-14T04:11:17;98101.47;;;15.80;55.28
1616;BME280;801;47.982;7.810;2023-06-14T04:13:44;98099.88;;;15.65;55.43
1616;BME280;801;47.982;7.810;2023-06-14T04:16:13;98110.72;;;15.79;55.22
1616;BME280;801;47.982;7.810;2023-06-14T04:18:40;98104.38;;;15.69;56.39
1616;BME280;801;47.982;7.810;2023-06-14T04:21:06;98112.72;;;15.73;55.22
1616;BME280;801;47.982;7.810;2023-06-14T04:23:33;98110.75;;;15.87;54.85
1616;BME280;801;47.982;7.810;2023-06-14T04:26:00;98114.88;;;15.85;54.51
1616;BME280;801;47.982;7.810;2023-06-14T04:28:28;98119.38;;;15.89;54.66
1616;BME280;801;47.982;7.810;2023-06-14T04:30:55;98114.91;;;16.07;53.46
1616;BME280;801;47.982;7.810;2023-06-14T04:33:23;98124.81;;;15.89;54.47
1616;BME280;801;47.982;7.810;2023-06-14T04:35:50;98128.72;;;15.97;55.05
1616;BME280;801;47.982;7.810;2023-06-14T04:38:19;98133.56;;;16.09;54.16
1616;BME280;801;47.982;7.810;2023-06-14T04:40:50;98130.25;;;16.12;53.87
1616;BME280;801;47.982;7.810;2023-06-14T04:43:18;98131.59;;;16.01;56.73
1616;BME280;801;47.982;7.810;2023-06-14T04:45:50;98139.50;;;16.11;55.77
1616;BME280;801;47.982;7.810;2023-06-14T04:48:17;98139.56;;;16.19;56.93
1616;BME280;801;47.982;7.810;2023-06-14T04:50:46;98139.13;;;16.26;54.15
1616;BME280;801;47.982;7.810;2023-06-14T04:53:12;98137.97;;;16.41;55.14
1616;BME280;801;47.982;7.810;2023-06-14T04:55:39;98139.41;;;16.47;56.11
1616;BME280;801;47.982;7.810;2023-06-14T04:58:10;98149.34;;;16.29;54.73
1616;BME280;801;47.982;7.810;2023-06-14T05:00:38;98151.88;;;16.03;57.85
1616;BME280;801;47.982;7.810;2023-06-14T05:03:04;98156.19;;;16.27;55.48
1616;BME280;801;47.982;7.810;2023-06-14T05:05:33;98153.41;;;16.40;56.04
1616;BME280;801;47.982;7.810;2023-06-14T05:08:01;98160.44;;;16.42;55.56
1616;BME280;801;47.982;7.810;2023-06-14T05:10:28;98155.88;;;16.51;55.88
1616;BME280;801;47.982;7.810;2023-06-14T05:12:54;98163.03;;;16.47;56.28
1616;BME280;801;47.982;7.810;2023-06-14T05:15:21;98164.66;;;16.48;57.57
1616;BME280;801;47.982;7.810;2023-06-14T05:17:53;98164.53;;;16.30;56.63
1616;BME280;801;47.982;7.810;2023-06-14T05:20:20;98167.09;;;16.35;56.38
1616;BME280;801;47.982;7.810;2023-06-14T05:22:48;98177.28;;;16.52;57.03
1616;BME280;801;47.982;7.810;2023-06-14T05:25:16;98170.00;;;16.62;56.09
1616;BME280;801;47.982;7.810;2023-06-14T05:27:43;98172.31;;;16.77;54.45
1616;BME280;801;47.982;7.810;2023-06-14T05:30:11;98167.66;;;17.00;53.72
1616;BME280;801;47.982;7.810;2023-06-14T05:32:37;98167.06;;;17.12;54.14
1616;BME280;801;47.982;7.810;2023-06-14T05:35:05;98167.75;;;17.17;54.32
1616;BME280;801;47.982;7.810;2023-06-14T05:37:32;98178.28;;;17.28;55.28
1616;BME280;801;47.982;7.810;2023-06-14T05:39:58;98184.16;;;17.12;54.02
1616;BME280;801;47.982;7.810;2023-06-14T05:42:26;98189.84;;;17.33;54.75
1616;BME280;801;47.982;7.810;2023-06-14T05:44:53;98188.72;;;17.34;54.28
1616;BME280;801;47.982;7.810;2023-06-14T05:47:20;98185.72;;;17.45;54.52
1616;BME280;801;47.982;7.810;2023-06-14T05:49:47;98183.00;;;17.45;54.98
1616;BME280;801;47.982;7.810;2023-06-14T05:52:13;98192.25;;;17.35;55.31
1616;BME280;801;47.982;7.810;2023-06-14T05:54:40;98186.63;;;17.31;55.73
1616;BME280;801;47.982;7.810;2023-06-14T05:57:07;98192.38;;;17.30;57.22
1616;BME280;801;47.982;7.810;2023-06-14T05:59:35;98180.53;;;17.17;56.61
1616;BME280;801;47.982;7.810;2023-06-14T06:02:01;98180.06;;;17.24;57.07
1616;BME280;801;47.982;7.810;2023-06-14T06:04:28;98187.78;;;17.48;56.65
1616;BME280;801;47.982;7.810;2023-06-14T06:06:55;98182.31;;;17.39;56.40
1616;BME280;801;47.982;7.810;2023-06-14T06:09:21;98191.81;;;17.59;57.96
1616;BME280;801;47.982;7.810;2023-06-14T06:11:48;98188.28;;;17.50;57.98
1616;BME280;801;47.982;7.810;2023-06-14T06:14:14;98199.31;;;17.53;57.93
1616;BME280;801;47.982;7.810;2023-06-14T06:16:42;98200.41;;;17.52;58.00
1616;BME280;801;47.982;7.810;2023-06-14T06:19:09;98199.50;;;17.66;58.87
1616;BME280;801;47.982;7.810;2023-06-14T06:21:35;98205.41;;;17.68;58.09
1616;BME280;801;47.982;7.810;2023-06-14T06:24:02;98211.19;;;17.75;57.73
1616;BME280;801;47.982;7.810;2023-06-14T06:26:30;98204.66;;;17.76;57.89
1616;BME280;801;47.982;7.810;2023-06-14T06:28:57;98204.69;;;17.84;57.22
1616;BME280;801;47.982;7.810;2023-06-14T06:31:23;98207.03;;;17.69;57.14
1616;BME280;801;47.982;7.810;2023-06-14T06:33:54;98205.75;;;17.75;56.55
1616;BME280;801;47.982;7.810;2023-06-14T06:36:20;98211.25;;;17.92;56.24
1616;BME280;801;47.982;7.810;2023-06-14T06:38:47;98210.63;;;17.95;62.32
1616;BME280;801;47.982;7.810;2023-06-14T06:41:14;98222.13;;;17.92;64.78
1616;BME280;801;47.982;7.810;2023-06-14T06:43:41;98222.22;;;17.78;67.30
1616;BME280;801;47.982;7.810;2023-06-14T06:46:07;98229.94;;;17.85;67.12
1616;BME280;801;47.982;7.810;2023-06-14T06:48:34;98223.75;;;17.93;65.46
1616;BME280;801;47.982;7.810;2023-06-14T06:51:02;98227.91;;;18.17;62.81
1616;BME280;801;47.982;7.810;2023-06-14T06:53:28;98221.50;;;18.30;63.56
1616;BME280;801;47.982;7.810;2023-06-14T06:55:55;98229.34;;;18.23;65.07
1616;BME280;801;47.982;7.810;2023-06-14T06:58:21;98225.69;;;18.36;65.47
1616;BME280;801;47.982;7.810;2023-06-14T07:00:48;98235.78;;;18.44;66.34
1616;BME280;801;47.982;7.810;2023-06-14T07:03:15;98230.94;;;18.41;66.72
1616;BME280;801;47.982;7.810;2023-06-14T07:05:41;98235.44;;;18.63;65.37
1616;BME280;801;47.982;7.810;2023-06-14T07:08:09;98235.59;;;18.67;61.88
1616;BME280;801;47.982;7.810;2023-06-14T07:10:36;98233.50;;;18.73;60.24
1616;BME280;801;47.982;7.810;2023-06-14T07:13:02;98227.28;;;18.81;59.98
1616;BME280;801;47.982;7.810;2023-06-14T07:15:29;98230.47;;;18.92;61.02
1616;BME280;801;47.982;7.810;2023-06-14T07:17:56;98233.31;;;18.95;59.30
1616;BME280;801;47.982;7.810;2023-06-14T07:20:25;98238.44;;;18.97;60.31
1616;BME280;801;47.982;7.810;2023-06-14T07:22:51;98241.78;;;19.11;59.05
1616;BME280;801;47.982;7.810;2023-06-14T07:25:19;98239.16;;;19.23;59.05
1616;BME280;801;47.982;7.810;2023-06-14T07:27:47;98238.34;;;19.32;59.13
1616;BME280;801;47.982;7.810;2023-06-14T07:30:14;98231.72;;;19.41;55.78
1616;BME280;801;47.982;7.810;2023-06-14T07:32:40;98241.75;;;19.58;55.11
1616;BME280;801;47.982;7.810;2023-06-14T07:35:07;98236.44;;;19.70;53.41
1616;BME280;801;47.982;7.810;2023-06-14T07:37:34;98239.91;;;19.80;50.96
1616;BME280;801;47.982;7.810;2023-06-14T07:40:01;98243.00;;;19.99;52.22
1616;BME280;801;47.982;7.810;2023-06-14T07:42:33;98239.22;;;19.92;52.54
1616;BME280;801;47.982;7.810;2023-06-14T07:45:00;98244.94;;;19.99;51.64
1616;BME280;801;47.982;7.810;2023-06-14T07:47:26;98246.66;;;20.03;49.74
1616;BME280;801;47.982;7.810;2023-06-14T07:49:53;98251.59;;;20.10;50.22
1616;BME280;801;47.982;7.810;2023-06-14T07:52:19;98245.72;;;19.99;49.69
1616;BME280;801;47.982;7.810;2023-06-14T07:54:46;98239.81;;;19.97;48.21
1616;BME280;801;47.982;7.810;2023-06-14T07:57:13;98238.84;;;19.93;45.95
1616;BME280;801;47.982;7.810;2023-06-14T07:59:40;98245.63;;;20.17;47.64
1616;BME280;801;47.982;7.810;2023-06-14T08:02:07;98249.53;;;20.28;48.13
1616;BME280;801;47.982;7.810;2023-06-14T08:04:33;98251.66;;;20.22;49.99
1616;BME280;801;47.982;7.810;2023-06-14T08:07:00;98244.41;;;20.26;51.55
1616;BME280;801;47.982;7.810;2023-06-14T08:09:27;98239.03;;;20.39;55.59
1616;BME280;801;47.982;7.810;2023-06-14T08:11:55;98239.28;;;20.25;57.28
1616;BME280;801;47.982;7.810;2023-06-14T08:14:21;98239.41;;;20.49;57.63
1616;BME280;801;47.982;7.810;2023-06-14T08:16:49;98242.94;;;20.71;56.23
1616;BME280;801;47.982;7.810;2023-06-14T08:19:16;98235.34;;;20.56;55.92
1616;BME280;801;47.982;7.810;2023-06-14T08:21:43;98245.63;;;20.59;56.68
1616;BME280;801;47.982;7.810;2023-06-14T08:24:11;98253.78;;;20.80;56.65
1616;BME280;801;47.982;7.810;2023-06-14T08:26:38;98247.69;;;20.95;58.11
1616;BME280;801;47.982;7.810;2023-06-14T08:29:05;98247.84;;;20.78;58.23
1616;BME280;801;47.982;7.810;2023-06-14T08:31:32;98235.97;;;20.94;58.56
1616;BME280;801;47.982;7.810;2023-06-14T08:34:00;98245.53;;;21.01;56.67
1616;BME280;801;47.982;7.810;2023-06-14T08:36:26;98238.75;;;21.19;58.16
1616;BME280;801;47.982;7.810;2023-06-14T08:38:53;98236.38;;;21.30;55.18
1616;BME280;801;47.982;7.810;2023-06-14T08:41:22;98238.31;;;21.17;54.36
1616;BME280;801;47.982;7.810;2023-06-14T08:43:49;98234.66;;;21.25;56.25
1616;BME280;801;47.982;7.810;2023-06-14T08:46:17;98247.66;;;21.28;55.40
1616;BME280;801;47.982;7.810;2023-06-14T08:48:46;98243.03;;;21.41;56.27
1616;BME280;801;47.982;7.810;2023-06-14T08:51:15;98243.16;;;21.69;57.07
1616;BME280;801;47.982;7.810;2023-06-14T08:53:44;98244.50;;;21.63;54.37
1616;BME280;801;47.982;7.810;2023-06-14T08:56:12;98246.78;;;21.49;55.65
1616;BME280;801;47.982;7.810;2023-06-14T08:58:42;98241.09;;;21.79;55.76
1616;BME280;801;47.982;7.810;2023-06-14T09:01:10;98239.84;;;21.76;54.60
1616;BME280;801;47.982;7.810;2023-06-14T09:03:39;98246.78;;;22.10;54.55
1616;BME280;801;47.982;7.810;2023-06-14T09:06:07;98252.13;;;22.07;52.32
1616;BME280;801;47.982;7.810;2023-06-14T09:08:40;98246.06;;;22.13;51.11
1616;BME280;801;47.982;7.810;2023-06-14T09:11:08;98250.22;;;22.48;48.94
1616;BME280;801;47.982;7.810;2023-06-14T09:16:01;98239.38;;;22.51;49.02
1616;BME280;801;47.982;7.810;2023-06-14T09:18:34;98244.91;;;22.67;48.63
1616;BME280;801;47.982;7.810;2023-06-14T09:21:01;98239.88;;;22.97;47.52
1616;BME280;801;47.982;7.810;2023-06-14T09:23:28;98247.06;;;23.02;45.50
1616;BME280;801;47.982;7.810;2023-06-14T09:25:56;98238.59;;;23.23;44.96
1616;BME280;801;47.982;7.810;2023-06-14T09:28:26;98247.44;;;23.32;42.90
1616;BME280;801;47.982;7.810;2023-06-14T09:30:53;98244.88;;;23.24;42.51
1616;BME280;801;47.982;7.810;2023-06-14T09:33:20;98248.31;;;23.36;42.95
1616;BME280;801;47.982;7.810;2023-06-14T09:35:51;98246.13;;;23.58;42.33
1616;BME280;801;47.982;7.810;2023-06-14T09:38:17;98251.16;;;23.56;42.36
1616;BME280;801;47.982;7.810;2023-06-14T09:40:44;98247.16;;;23.69;41.54
1616;BME280;801;47.982;7.810;2023-06-14T09:43:12;98252.66;;;23.69;42.34
1616;BME280;801;47.982;7.810;2023-06-14T09:45:39;98248.03;;;24.24;41.97
1616;BME280;801;47.982;7.810;2023-06-14T09:48:06;98240.03;;;24.00;41.02
1616;BME280;801;47.982;7.810;2023-06-14T09:50:33;98249.84;;;24.52;40.86
1616;BME280;801;47.982;7.810;2023-06-14T09:53:02;98248.34;;;24.97;38.64
1616;BME280;801;47.982;7.810;2023-06-14T09:55:34;98245.91;;;25.35;38.21
1616;BME280;801;47.982;7.810;2023-06-14T09:58:05;98239.25;;;25.59;37.11
1616;BME280;801;47.982;7.810;2023-06-14T10:00:34;98242.09;;;25.20;36.11
1616;BME280;801;47.982;7.810;2023-06-14T10:03:12;98244.97;;;25.27;36.43
1616;BME280;801;47.982;7.810;2023-06-14T10:05:42;98239.66;;;25.61;36.17
1616;BME280;801;47.982;7.810;2023-06-14T10:08:14;98238.41;;;25.81;33.78
1616;BME280;801;47.982;7.810;2023-06-14T10:10:42;98229.44;;;25.38;35.25
1616;BME280;801;47.982;7.810;2023-06-14T10:13:09;98231.19;;;25.23;36.03
1616;BME280;801;47.982;7.810;2023-06-14T10:15:45;98234.88;;;25.58;34.39
1616;BME280;801;47.982;7.810;2023-06-14T10:18:19;98229.97;;;25.21;35.08
1616;BME280;801;47.982;7.810;2023-06-14T10:20:55;98224.41;;;25.67;34.90
1616;BME280;801;47.982;7.810;2023-06-14T10:23:27;98224.13;;;25.72;35.30
1616;BME280;801;47.982;7.810;2023-06-14T10:25:57;98218.31;;;26.04;35.87
1616;BME280;801;47.982;7.810;2023-06-14T10:28:25;98228.34;;;25.66;35.29
1616;BME280;801;47.982;7.810;2023-06-14T10:31:07;98223.88;;;25.58;35.33
1616;BME280;801;47.982;7.810;2023-06-14T10:33:34;98223.97;;;25.65;34.69
1616;BME280;801;47.982;7.810;2023-06-14T10:39:00;98217.78;;;25.72;33.28
1616;BME280;801;47.982;7.810;2023-06-14T10:41:28;98214.91;;;25.61;34.29
1616;BME280;801;47.982;7.810;2023-06-14T10:46:58;98195.81;;;25.98;33.94
1616;BME280;801;47.982;7.810;2023-06-14T10:49:38;98206.19;;;26.12;33.68
1616;BME280;801;47.982;7.810;2023-06-14T10:52:08;98206.31;;;26.19;33.09
1616;BME280;801;47.982;7.810;2023-06-14T10:54:37;98196.84;;;26.17;33.69
1616;BME280;801;47.982;7.810;2023-06-14T10:57:06;98201.25;;;26.25;33.56
1616;BME280;801;47.982;7.810;2023-06-14T10:59:33;98208.63;;;26.47;33.20
1616;BME280;801;47.982;7.810;2023-06-14T11:02:11;98211.16;;;26.29;32.00
1616;BME280;801;47.982;7.810;2023-06-14T11:04:47;98207.47;;;26.48;32.06
1616;BME280;801;47.982;7.810;2023-06-14T11:07:30;98217.84;;;26.96;31.27
1616;BME280;801;47.982;7.810;2023-06-14T11:10:11;98211.97;;;26.98;30.04
1616;BME280;801;47.982;7.810;2023-06-14T11:12:41;98216.81;;;26.74;29.61
1616;BME280;801;47.982;7.810;2023-06-14T11:15:09;98217.63;;;26.75;30.48
1616;BME280;801;47.982;7.810;2023-06-14T11:17:36;98214.47;;;27.13;30.78
1616;BME280;801;47.982;7.810;2023-06-14T11:20:09;98205.78;;;27.11;30.43
1616;BME280;801;47.982;7.810;2023-06-14T11:22:41;98208.06;;;26.65;31.65
1616;BME280;801;47.982;7.810;2023-06-14T11:25:08;98193.81;;;26.97;31.37
1616;BME280;801;47.982;7.810;2023-06-14T11:27:35;98191.38;;;26.88;30.97
1616;BME280;801;47.982;7.810;2023-06-14T11:30:02;98197.72;;;26.92;30.83
1616;BME280;801;47.982;7.810;2023-06-14T11:32:31;98196.88;;;26.84;30.63
1616;BME280;801;47.982;7.810;2023-06-14T11:34:59;98198.91;;;26.95;30.42
1616;BME280;801;47.982;7.810;2023-06-14T11:37:26;98198.47;;;27.26;30.59
1616;BME280;801;47.982;7.810;2023-06-14T11:39:56;98189.53;;;27.44;30.21
1616;BME280;801;47.982;7.810;2023-06-14T11:42:22;98195.53;;;27.08;30.86
1616;BME280;801;47.982;7.810;2023-06-14T11:44:49;98185.19;;;26.98;31.46
1616;BME280;801;47.982;7.810;2023-06-14T11:47:16;98185.28;;;27.12;30.96
1616;BME280;801;47.982;7.810;2023-06-14T11:49:42;98186.38;;;27.42;30.55
1616;BME280;801;47.982;7.810;2023-06-14T11:52:11;98195.22;;;27.65;30.62
1616;BME280;801;47.982;7.810;2023-06-14T11:54:38;98188.13;;;28.38;30.25
1616;BME280;801;47.982;7.810;2023-06-14T11:57:06;98179.41;;;28.25;29.44
1616;BME280;801;47.982;7.810;2023-06-14T11:59:37;98178.09;;;28.01;30.34
1616;BME280;801;47.982;7.810;2023-06-14T12:02:05;98182.13;;;28.14;30.00
1616;BME280;801;47.982;7.810;2023-06-14T12:04:32;98176.06;;;27.87;30.05
1616;BME280;801;47.982;7.810;2023-06-14T12:07:08;98190.25;;;27.85;29.90
1616;BME280;801;47.982;7.810;2023-06-14T12:09:41;98171.66;;;27.82;29.77
1616;BME280;801;47.982;7.810;2023-06-14T12:12:09;98173.22;;;27.80;30.07
1616;BME280;801;47.982;7.810;2023-06-14T12:14:36;98170.09;;;28.72;29.31
1616;BME280;801;47.982;7.810;2023-06-14T12:17:06;98171.91;;;28.25;28.89
1616;BME280;801;47.982;7.810;2023-06-14T12:19:33;98171.94;;;28.36;28.41
1616;BME280;801;47.982;7.810;2023-06-14T12:22:09;98176.72;;;28.43;28.64
1616;BME280;801;47.982;7.810;2023-06-14T12:24:36;98174.94;;;27.99;28.74
1616;BME280;801;47.982;7.810;2023-06-14T12:27:05;98169.53;;;28.31;28.31
1616;BME280;801;47.982;7.810;2023-06-14T12:29:32;98169.69;;;28.63;28.59
1616;BME280;801;47.982;7.810;2023-06-14T12:31:58;98178.50;;;29.37;27.75
1616;BME280;801;47.982;7.810;2023-06-14T12:34:25;98173.28;;;28.89;27.72
1616;BME280;801;47.982;7.810;2023-06-14T12:36:52;98169.00;;;29.09;27.53
1616;BME280;801;47.982;7.810;2023-06-14T12:39:19;98175.69;;;29.51;27.60
1616;BME280;801;47.982;7.810;2023-06-14T12:41:46;98168.59;;;29.47;27.49
1616;BME280;801;47.982;7.810;2023-06-14T12:44:15;98172.94;;;29.48;27.10
1616;BME280;801;47.982;7.810;2023-06-14T12:46:42;98172.91;;;28.94;27.44
1616;BME280;801;47.982;7.810;2023-06-14T12:49:09;98165.81;;;29.57;27.16
1616;BME280;801;47.982;7.810;2023-06-14T12:51:36;98169.75;;;29.85;27.45
1616;BME280;801;47.982;7.810;2023-06-14T12:54:03;98174.13;;;29.14;27.73
1616;BME280;801;47.982;7.810;2023-06-14T12:56:29;98168.19;;;29.52;27.55
1616;BME280;801;47.982;7.810;2023-06-14T12:58:56;98171.38;;;29.43;27.74
1616;BME280;801;47.982;7.810;2023-06-14T13:01:24;98166.53;;;28.68;28.06
1616;BME280;801;47.982;7.810;2023-06-14T13:03:51;98169.78;;;29.17;28.09
1616;BME280;801;47.982;7.810;2023-06-14T13:06:20;98179.66;;;29.54;27.41
1616;BME280;801;47.982;7.810;2023-06-14T13:08:47;98172.50;;;29.06;27.89
1616;BME280;801;47.982;7.810;2023-06-14T13:11:13;98180.06;;;29.31;27.91
1616;BME280;801;47.982;7.810;2023-06-14T13:13:40;98168.19;;;29.27;27.46
1616;BME280;801;47.982;7.810;2023-06-14T13:16:06;98186.38;;;29.42;27.41
1616;BME280;801;47.982;7.810;2023-06-14T13:18:34;98181.56;;;30.04;27.12
1616;BME280;801;47.982;7.810;2023-06-14T13:21:01;98184.00;;;29.58;27.07
1616;BME280;801;47.982;7.810;2023-06-14T13:23:27;98176.88;;;29.07;28.51
1616;BME280;801;47.982;7.810;2023-06-14T13:25:54;98176.88;;;29.57;27.84
1616;BME280;801;47.982;7.810;2023-06-14T13:28:20;98186.34;;;29.03;27.74
1616;BME280;801;47.982;7.810;2023-06-14T13:30:47;98172.88;;;28.76;27.99
1616;BME280;801;47.982;7.810;2023-06-14T13:33:14;98184.81;;;29.37;27.55
1616;BME280;801;47.982;7.810;2023-06-14T13:35:41;98180.84;;;29.35;27.69
1616;BME280;801;47.982;7.810;2023-06-14T13:38:09;98178.44;;;29.01;27.74
1616;BME280;801;47.982;7.810;2023-06-14T13:40:35;98175.28;;;29.78;27.63
1616;BME280;801;47.982;7.810;2023-06-14T13:43:02;98183.94;;;29.98;27.01